Terminal Aerodrome Forecast
Issued by NWS Nashville, TN

Home | Current Version | Previous Version | Text Only | Print | Product List | Glossary On
Versions: 1 2 3 4 5 6 7 8 9 10 11 12 13 14 15 16 17 18 19 20 21 22 23 24 25 26 27 28 29 30 31 32 33 34 35 36 37 38 39 40 41 42 43 44 45 46 47 48 49 50
000
FTUS44 KOHX 191613 AAB
TAFBNA
TAF AMD
KBNA 191613Z 1916/2012 22004KT P6SM VCSH BKN025
     FM191700 23008KT P6SM BKN035
     FM192100 24008G15KT P6SM VCTS BKN050CB
      TEMPO 1922/1924 3SM -TSRA BR OVC030CB
     FM200200 20006KT P6SM VCSH BKN050 OVC120=

USA.gov is the U.S. government's official web portal to all federal, state and local government web resources and services.